首页
METAR-TAF:

METAR-TAF

机场 :

夏洛特道格拉斯國際機場

夏洛特, 北卡罗来纳州, 美国

纬度: 35-12-48N, 经度: 080-56-55W, 海拔: 228米

当前天气观测

该预报发布于1小时和6分钟前的18:52 UTC
风速8节,风向北转东北
温度 14°C
湿度 47%
气压 1015 hPa
能見度: 16.1公里
少量云层高于4400英尺
少量云层高于25000英尺

METAR: KCLT 171852Z 03008KT 10SM FEW044 FEW250 14/03 A2998 RMK AO2 SLP152 T01440033

时间: 14:58 (19:58 UTC)

预报

该预报发布于2小时和18分钟前的17:40 UTC
预报有效从17日的 18点(UTC)到 18日的 24点(UTC)
风速10节,风向北转东北
能見度: 10公里
散云层高于4500英尺
散云层高于7000英尺
从 17日的 2300点(UTC)
风速5节,风向北转东北
能見度: 10公里
多云层高于4500英尺
从 18日的 1000点(UTC)
风速3节,风向北转西北
能見度: 10公里
散云层高于2500英尺
多云层高于4000英尺
短暂存在
从 18日的 11点(UTC)到 18日的 15点(UTC)
多云层高于2500英尺
从 18日的 1500点(UTC)
风速3节,风向西转西北
能見度: 10公里
散云层高于3000英尺
多云层高于7000英尺
从 18日的 1700点(UTC)
风速5节,风向西转西南
能見度: 10公里
散云层高于7000英尺

TAF: KCLT 171740Z 1718/1824 03010KT P6SM SCT045 SCT070 FM172300 02005KT P6SM BKN045 FM181000 34003KT P6SM SCT025 BKN040 TEMPO 1811/1815 BKN025 FM181500 30003KT P6SM SCT030 BKN070 FM181700 25005KT P6SM SCT070

超过4000个机场的气象观测和天气预报(METAR&TAF报告)。

可查询的气象台以黄色和红色小点在地图上表示。

将鼠标移到小点上方,可查看气象台名称。

然后点击查看天气观测和预报。

如需切换地图:点击带黑十字的绿色按钮放大地图;点击带横线的绿色按钮缩小地图;或者点击绿色箭头查看邻近地区的地图。


METAR-TAF: